createdAt,value
2018-04-11T00:00:06.484Z,19.65
2018-04-11T00:01:06.300Z,19.89
2018-04-11T00:02:06.292Z,19.67
2018-04-11T00:03:06.376Z,19.64
2018-04-11T00:04:06.344Z,19.88
2018-04-11T00:05:06.366Z,19.68
2018-04-11T00:06:06.335Z,19.65
2018-04-11T00:07:06.320Z,19.86
2018-04-11T00:08:06.312Z,19.66
2018-04-11T00:09:06.305Z,19.63
2018-04-11T00:10:06.411Z,19.86
2018-04-11T00:11:06.335Z,19.67
2018-04-11T00:12:06.344Z,19.64
2018-04-11T00:13:06.306Z,19.85
2018-04-11T00:14:06.317Z,19.67
2018-04-11T00:15:06.338Z,19.63
2018-04-11T00:16:06.326Z,19.85
2018-04-11T00:17:06.334Z,19.66
2018-04-11T00:18:06.522Z,19.63
2018-04-11T00:19:06.329Z,19.85
2018-04-11T00:20:06.316Z,19.65
2018-04-11T00:21:06.339Z,19.61
2018-04-11T00:22:06.342Z,19.83
2018-04-11T00:23:06.325Z,19.66
2018-04-11T00:24:06.584Z,19.63
2018-04-11T00:25:06.658Z,19.84
2018-04-11T00:26:06.420Z,19.65
2018-04-11T00:27:06.480Z,19.62
2018-04-11T00:28:06.375Z,19.82
2018-04-11T00:29:06.338Z,19.63
2018-04-11T00:30:06.334Z,19.6
2018-04-11T00:31:06.775Z,19.83
2018-04-11T00:32:06.420Z,19.63
2018-04-11T00:33:06.569Z,19.61
2018-04-11T00:34:06.325Z,19.81
2018-04-11T00:35:06.633Z,19.64
2018-04-11T00:36:06.291Z,19.61
2018-04-11T00:37:06.320Z,19.82
2018-04-11T00:38:06.341Z,19.63
2018-04-11T00:39:06.468Z,19.59
2018-04-11T00:40:06.415Z,19.81
2018-04-11T00:41:06.293Z,19.62
2018-04-11T00:42:06.582Z,19.61
2018-04-11T00:43:06.296Z,19.81
2018-04-11T00:44:06.318Z,19.62
2018-04-11T00:45:06.372Z,19.6
2018-04-11T00:46:06.389Z,19.81
2018-04-11T00:47:06.262Z,19.63
2018-04-11T00:48:06.317Z,19.59
2018-04-11T00:49:06.502Z,19.81
2018-04-11T00:50:06.314Z,19.61
2018-04-11T00:51:06.297Z,19.58
2018-04-11T00:52:06.338Z,19.8
2018-04-11T00:53:06.373Z,19.59
2018-04-11T00:54:06.329Z,19.57
2018-04-11T00:55:06.301Z,19.8
2018-04-11T00:56:06.311Z,19.59
2018-04-11T00:57:06.269Z,19.57
2018-04-11T00:58:06.299Z,19.79
2018-04-11T00:59:06.292Z,19.6
2018-04-11T01:00:06.277Z,19.58
2018-04-11T01:01:06.310Z,19.8
2018-04-11T01:02:06.337Z,19.6
2018-04-11T01:03:06.295Z,19.56
2018-04-11T01:04:06.306Z,19.79
2018-04-11T01:05:06.528Z,19.6
2018-04-11T01:06:06.321Z,19.57
2018-04-11T01:07:06.302Z,19.79
2018-04-11T01:08:06.608Z,19.59
2018-04-11T01:09:06.314Z,19.57
2018-04-11T01:10:06.324Z,19.78
2018-04-11T01:11:06.324Z,19.59
2018-04-11T01:12:06.272Z,19.56
2018-04-11T01:13:06.506Z,19.79
2018-04-11T01:14:06.379Z,19.59
2018-04-11T01:15:06.594Z,19.55
2018-04-11T01:16:06.504Z,19.77
2018-04-11T01:17:06.581Z,19.61
2018-04-11T01:18:06.276Z,19.57
2018-04-11T01:19:06.264Z,19.77
2018-04-11T01:20:06.383Z,19.58
2018-04-11T01:21:06.428Z,19.54
2018-04-11T01:22:06.688Z,19.76
2018-04-11T01:23:06.317Z,19.58
2018-04-11T01:24:06.294Z,19.55
2018-04-11T01:25:06.596Z,19.75
2018-04-11T01:26:06.307Z,19.57
2018-04-11T01:27:06.318Z,19.54
2018-04-11T01:28:06.553Z,19.75
2018-04-11T01:29:06.507Z,19.55
2018-04-11T01:30:06.290Z,19.54
2018-04-11T01:31:06.283Z,19.76
2018-04-11T01:32:06.352Z,19.56
2018-04-11T01:33:06.651Z,19.54
2018-04-11T01:34:06.324Z,19.76
2018-04-11T01:35:06.272Z,19.58
2018-04-11T01:36:06.282Z,19.53
2018-04-11T01:37:06.282Z,19.75
2018-04-11T01:38:06.520Z,19.57
2018-04-11T01:39:06.483Z,19.52
2018-04-11T01:40:06.270Z,19.75
2018-04-11T01:41:06.291Z,19.57
2018-04-11T01:42:06.640Z,19.52
2018-04-11T01:43:06.578Z,19.74
2018-04-11T01:44:06.298Z,19.57
2018-04-11T01:45:06.269Z,19.53
2018-04-11T01:46:06.264Z,19.75
2018-04-11T01:47:06.643Z,19.55
2018-04-11T01:48:06.497Z,19.53
2018-04-11T01:49:06.576Z,19.75
2018-04-11T01:50:06.297Z,19.56
2018-04-11T01:51:06.301Z,19.51
2018-04-11T01:52:06.278Z,19.74
2018-04-11T01:53:06.594Z,19.57
2018-04-11T01:54:06.261Z,19.53
2018-04-11T01:55:06.240Z,19.75
2018-04-11T01:56:06.254Z,19.54
2018-04-11T01:57:06.278Z,19.51
2018-04-11T01:58:06.272Z,19.73
2018-04-11T01:59:06.256Z,19.55
2018-04-11T02:00:06.340Z,19.51
2018-04-11T02:01:06.313Z,19.73
2018-04-11T02:02:06.346Z,19.56
2018-04-11T02:03:06.356Z,19.52
2018-04-11T02:04:06.260Z,19.72
2018-04-11T02:05:06.296Z,19.54
2018-04-11T02:06:06.443Z,19.51
2018-04-11T02:07:06.465Z,19.71
2018-04-11T02:08:06.263Z,19.53
2018-04-11T02:09:06.266Z,19.51
2018-04-11T02:10:06.337Z,19.73
2018-04-11T02:11:06.409Z,19.54
2018-04-11T02:12:06.313Z,19.51
2018-04-11T02:13:06.537Z,19.71
2018-04-11T02:14:06.628Z,19.52
2018-04-11T02:15:06.300Z,19.48
2018-04-11T02:16:06.286Z,19.71
2018-04-11T02:17:06.637Z,19.53
2018-04-11T02:18:06.543Z,19.49
2018-04-11T02:19:06.498Z,19.72
2018-04-11T02:20:06.268Z,19.52
2018-04-11T02:21:06.254Z,19.48
2018-04-11T02:22:06.407Z,19.71
2018-04-11T02:23:06.595Z,19.53
2018-04-11T02:24:06.515Z,19.51
2018-04-11T02:25:06.232Z,19.7
2018-04-11T02:26:06.276Z,19.53
2018-04-11T02:27:06.276Z,19.5
2018-04-11T02:28:06.363Z,19.7
2018-04-11T02:29:06.249Z,19.52
2018-04-11T02:30:06.264Z,19.5
2018-04-11T02:31:06.257Z,19.69
2018-04-11T02:32:06.638Z,19.51
2018-04-11T02:33:06.266Z,19.5
2018-04-11T02:34:06.232Z,19.7
2018-04-11T02:35:06.428Z,19.51
2018-04-11T02:36:06.350Z,19.48
2018-04-11T02:37:06.321Z,19.69
2018-04-11T02:38:06.265Z,19.51
2018-04-11T02:39:06.658Z,19.49
2018-04-11T02:40:06.297Z,19.69
2018-04-11T02:41:06.726Z,19.51
2018-04-11T02:42:06.312Z,19.48
2018-04-11T02:43:06.245Z,19.69
2018-04-11T02:44:06.566Z,19.51
2018-04-11T02:45:06.349Z,19.48
2018-04-11T02:46:06.280Z,19.7
2018-04-11T02:47:06.272Z,19.52
2018-04-11T02:48:06.813Z,19.47
2018-04-11T02:49:06.620Z,19.69
2018-04-11T02:50:06.395Z,19.5
2018-04-11T02:51:06.242Z,19.45
2018-04-11T02:52:06.293Z,19.68
2018-04-11T02:53:06.333Z,19.5
2018-04-11T02:54:06.482Z,19.46
2018-04-11T02:55:06.340Z,19.67
2018-04-11T02:56:06.403Z,19.49
2018-04-11T02:57:06.459Z,19.46
2018-04-11T02:58:06.231Z,19.68
2018-04-11T02:59:06.595Z,19.49
2018-04-11T03:00:06.299Z,19.45
2018-04-11T03:01:06.306Z,19.67
2018-04-11T03:02:06.310Z,19.49
2018-04-11T03:03:06.265Z,19.46
2018-04-11T03:04:06.656Z,19.68
2018-04-11T03:05:06.303Z,19.49
2018-04-11T03:06:06.484Z,19.46
2018-04-11T03:07:06.489Z,19.67
2018-04-11T03:08:06.538Z,19.48
2018-04-11T03:09:06.327Z,19.45
2018-04-11T03:10:06.743Z,19.65
2018-04-11T03:11:06.213Z,19.46
2018-04-11T03:12:06.752Z,19.45
2018-04-11T03:13:06.213Z,19.67
2018-04-11T03:14:06.296Z,19.47
2018-04-11T03:15:06.255Z,19.45
2018-04-11T03:16:06.217Z,19.66
2018-04-11T03:17:06.766Z,19.47
2018-04-11T03:18:06.250Z,19.44
2018-04-11T03:19:06.206Z,19.64
2018-04-11T03:20:06.287Z,19.48
2018-04-11T03:21:06.548Z,19.44
2018-04-11T03:22:06.597Z,19.64
2018-04-11T03:23:06.351Z,19.45
2018-04-11T03:24:06.505Z,19.44
2018-04-11T03:25:06.263Z,19.64
2018-04-11T03:26:06.446Z,19.47
2018-04-11T03:27:06.274Z,19.45
2018-04-11T03:28:06.700Z,19.65
2018-04-11T03:29:06.297Z,19.46
2018-04-11T03:30:06.300Z,19.43
2018-04-11T03:31:06.269Z,19.63
2018-04-11T03:32:06.295Z,19.46
2018-04-11T03:33:06.240Z,19.42
2018-04-11T03:34:06.260Z,19.63
2018-04-11T03:35:06.235Z,19.45
2018-04-11T03:36:06.240Z,19.43
2018-04-11T03:37:06.249Z,19.63
2018-04-11T03:38:06.243Z,19.45
2018-04-11T03:39:06.468Z,19.43
2018-04-11T03:40:06.218Z,19.63
2018-04-11T03:41:06.232Z,19.46
2018-04-11T03:42:06.664Z,19.41
2018-04-11T03:43:06.240Z,19.63
2018-04-11T03:44:06.259Z,19.43
2018-04-11T03:45:06.219Z,19.41
2018-04-11T03:46:06.241Z,19.63
2018-04-11T03:47:06.239Z,19.45
2018-04-11T03:48:06.648Z,19.41
2018-04-11T03:49:06.266Z,19.62
2018-04-11T03:50:06.238Z,19.45
2018-04-11T03:51:06.223Z,19.41
2018-04-11T03:52:06.706Z,19.63
2018-04-11T03:53:06.281Z,19.45
2018-04-11T03:54:06.461Z,19.42
2018-04-11T03:55:06.297Z,19.63
2018-04-11T03:56:06.550Z,19.45
2018-04-11T03:57:06.310Z,19.41
2018-04-11T03:58:06.265Z,19.63
2018-04-11T03:59:06.282Z,19.45
2018-04-11T04:00:06.329Z,19.44
2018-04-11T04:01:06.260Z,19.67
2018-04-11T04:02:06.244Z,19.49
2018-04-11T04:03:06.270Z,19.46
2018-04-11T04:04:06.234Z,19.68
2018-04-11T04:05:06.306Z,19.52
2018-04-11T04:06:06.245Z,19.51
2018-04-11T04:07:06.256Z,19.72
2018-04-11T04:08:06.239Z,19.56
2018-04-11T04:09:06.531Z,19.54
2018-04-11T04:10:06.280Z,19.75
2018-04-11T04:11:06.243Z,19.6
2018-04-11T04:12:06.693Z,19.59
2018-04-11T04:13:06.267Z,19.81
2018-04-11T04:14:06.292Z,19.65
2018-04-11T04:15:06.281Z,19.65
2018-04-11T04:16:06.692Z,19.86
2018-04-11T04:17:06.521Z,19.7
2018-04-11T04:18:06.210Z,19.69
2018-04-11T04:19:06.439Z,19.91
2018-04-11T04:20:06.253Z,19.75
2018-04-11T04:21:06.254Z,19.74
2018-04-11T04:22:06.570Z,19.94
2018-04-11T04:23:06.220Z,19.78
2018-04-11T04:24:06.528Z,19.78
2018-04-11T04:25:06.238Z,19.99
2018-04-11T04:26:06.409Z,19.84
2018-04-11T04:27:06.245Z,19.83
2018-04-11T04:28:06.277Z,20.04
2018-04-11T04:29:06.271Z,19.89
2018-04-11T04:30:06.214Z,19.87
2018-04-11T04:31:06.228Z,20.07
2018-04-11T04:32:06.300Z,19.93
2018-04-11T04:33:06.198Z,19.91
2018-04-11T04:34:06.398Z,20.11
2018-04-11T04:35:06.274Z,19.95
2018-04-11T04:36:06.297Z,19.95
2018-04-11T04:37:06.950Z,20.17
2018-04-11T04:38:06.247Z,20
2018-04-11T04:39:06.240Z,20
2018-04-11T04:40:06.567Z,20.19
2018-04-11T04:41:06.202Z,20.03
2018-04-11T04:42:06.387Z,20.05
2018-04-11T04:43:06.226Z,20.23
2018-04-11T04:44:06.304Z,20.08
2018-04-11T04:45:06.234Z,20.07
2018-04-11T04:46:06.374Z,20.27
2018-04-11T04:47:06.286Z,20.12
2018-04-11T04:48:06.242Z,20.1
2018-04-11T04:49:06.601Z,20.29
2018-04-11T04:50:06.255Z,20.15
2018-04-11T04:51:06.431Z,20.14
2018-04-11T04:52:06.842Z,20.33
2018-04-11T04:53:06.433Z,20.18
2018-04-11T04:54:06.329Z,20.18
2018-04-11T04:55:06.234Z,20.36
2018-04-11T04:56:06.259Z,20.2
2018-04-11T04:57:06.198Z,20.21
2018-04-11T04:58:06.366Z,20.39
2018-04-11T04:59:06.261Z,20.24
2018-04-11T05:00:06.220Z,20.23
2018-04-11T05:01:06.275Z,20.43
2018-04-11T05:02:06.258Z,20.27
2018-04-11T05:03:06.558Z,20.26
2018-04-11T05:04:06.186Z,20.46
2018-04-11T05:05:06.444Z,20.31
2018-04-11T05:06:06.637Z,20.3
2018-04-11T05:07:06.237Z,20.5
2018-04-11T05:08:06.228Z,20.35
2018-04-11T05:09:06.198Z,20.35
2018-04-11T05:10:06.181Z,20.53
2018-04-11T05:11:06.849Z,20.37
2018-04-11T05:12:06.192Z,20.36
2018-04-11T05:13:06.300Z,20.57
2018-04-11T05:14:06.197Z,20.43
2018-04-11T05:15:06.322Z,20.4
2018-04-11T05:16:06.258Z,20.59
2018-04-11T05:17:06.187Z,20.42
2018-04-11T05:18:06.312Z,20.44
2018-04-11T05:19:06.214Z,20.62
2018-04-11T05:20:06.191Z,20.46
2018-04-11T05:21:06.207Z,20.45
2018-04-11T05:22:06.223Z,20.64
2018-04-11T05:23:06.287Z,20.48
2018-04-11T05:24:06.318Z,20.48
2018-04-11T05:25:06.628Z,20.66
2018-04-11T05:26:06.187Z,20.5
2018-04-11T05:27:06.225Z,20.48
2018-04-11T05:28:06.227Z,20.68
2018-04-11T05:29:06.191Z,20.52
2018-04-11T05:30:06.174Z,20.48
2018-04-11T05:31:06.212Z,20.69
2018-04-11T05:32:06.220Z,20.54
2018-04-11T05:33:06.264Z,20.52
2018-04-11T05:34:06.634Z,20.71
2018-04-11T05:35:06.277Z,20.55
2018-04-11T05:36:06.184Z,20.53
2018-04-11T05:37:06.172Z,20.72
2018-04-11T05:38:06.174Z,20.57
2018-04-11T05:39:06.203Z,20.54
2018-04-11T05:40:06.189Z,20.74
2018-04-11T05:41:06.207Z,20.58
2018-04-11T05:42:06.456Z,20.56
2018-04-11T05:43:06.198Z,20.76
2018-04-11T05:44:06.656Z,20.6
2018-04-11T05:45:06.246Z,20.56
2018-04-11T05:46:06.193Z,20.75
2018-04-11T05:47:06.257Z,20.59
2018-04-11T05:48:06.179Z,20.61
2018-04-11T05:49:06.221Z,20.81
2018-04-11T05:50:06.229Z,20.66
2018-04-11T05:51:06.229Z,20.67
2018-04-11T05:52:06.212Z,20.86
2018-04-11T05:53:06.469Z,20.7
2018-04-11T05:54:06.177Z,20.71
2018-04-11T05:55:06.210Z,20.88
2018-04-11T05:56:06.167Z,20.73
2018-04-11T05:57:06.223Z,20.75
2018-04-11T05:58:06.288Z,20.94
2018-04-11T05:59:06.207Z,20.8
2018-04-11T06:00:06.182Z,20.77
2018-04-11T06:01:06.228Z,20.97
2018-04-11T06:02:06.176Z,20.83
2018-04-11T06:03:06.284Z,20.8
2018-04-11T06:04:06.182Z,21.01
2018-04-11T06:05:06.204Z,20.87
2018-04-11T06:06:06.213Z,20.85
2018-04-11T06:07:06.192Z,21.05
2018-04-11T06:08:06.208Z,20.89
2018-04-11T06:09:06.412Z,20.87
2018-04-11T06:10:06.171Z,21.02
2018-04-11T06:11:06.158Z,20.83
2018-04-11T06:12:06.206Z,20.77
2018-04-11T06:13:06.228Z,20.98
2018-04-11T06:14:06.370Z,20.77
2018-04-11T06:15:06.210Z,20.74
2018-04-11T06:16:06.320Z,20.95
2018-04-11T06:17:06.332Z,20.77
2018-04-11T06:18:06.222Z,20.72
2018-04-11T06:19:06.221Z,20.96
2018-04-11T06:20:06.341Z,20.78
2018-04-11T06:21:06.236Z,20.78
2018-04-11T06:22:06.192Z,20.96
2018-04-11T06:23:06.710Z,20.81
2018-04-11T06:24:06.354Z,20.78
2018-04-11T06:25:06.191Z,20.99
2018-04-11T06:26:06.267Z,20.8
2018-04-11T06:27:06.196Z,20.77
2018-04-11T06:28:06.479Z,20.99
2018-04-11T06:29:06.364Z,20.81
2018-04-11T06:30:06.408Z,20.76
2018-04-11T06:31:06.230Z,20.98
2018-04-11T06:32:06.193Z,20.81
2018-04-11T06:33:06.224Z,20.77
2018-04-11T06:34:06.233Z,20.97
2018-04-11T06:35:06.503Z,20.79
2018-04-11T06:36:06.155Z,20.77
2018-04-11T06:37:06.216Z,20.98
2018-04-11T06:38:06.208Z,20.81
2018-04-11T06:39:06.236Z,20.79
2018-04-11T06:40:06.180Z,20.98
2018-04-11T06:41:06.372Z,20.82
2018-04-11T06:42:06.490Z,20.79
2018-04-11T06:43:06.349Z,20.99
2018-04-11T06:44:06.224Z,20.79
2018-04-11T06:45:06.213Z,20.76
2018-04-11T06:46:06.218Z,20.97
2018-04-11T06:47:06.197Z,20.77
2018-04-11T06:48:06.222Z,20.72
2018-04-11T06:49:06.210Z,20.93
2018-04-11T06:50:06.229Z,20.73
2018-04-11T06:51:06.195Z,20.74
2018-04-11T06:52:06.148Z,20.94
2018-04-11T06:53:06.169Z,20.8
2018-04-11T06:54:06.190Z,20.77
2018-04-11T06:55:06.206Z,21
2018-04-11T06:56:06.182Z,20.83
2018-04-11T06:57:06.264Z,20.81
2018-04-11T06:58:06.162Z,21.01
2018-04-11T06:59:06.201Z,20.85
2018-04-11T07:00:06.221Z,20.83
2018-04-11T07:01:06.223Z,21.04
2018-04-11T07:02:06.297Z,20.87
2018-04-11T07:03:06.176Z,20.85
2018-04-11T07:04:06.188Z,21.05
2018-04-11T07:05:06.352Z,21
2018-04-11T07:06:06.188Z,21.12
2018-04-11T07:07:06.197Z,21.13
2018-04-11T07:08:06.198Z,20.78
2018-04-11T07:09:06.173Z,20.78
2018-04-11T07:10:06.187Z,21.02
2018-04-11T07:11:06.174Z,20.84
2018-04-11T07:12:06.164Z,20.83
2018-04-11T07:13:06.199Z,21.05
2018-04-11T07:14:06.726Z,20.87
2018-04-11T07:15:06.183Z,20.84
2018-04-11T07:16:06.163Z,21.06
2018-04-11T07:17:06.182Z,20.88
2018-04-11T07:18:06.167Z,20.83
2018-04-11T07:19:06.340Z,21.03
2018-04-11T07:20:06.204Z,20.88
2018-04-11T07:21:06.142Z,20.84
2018-04-11T07:22:06.189Z,21.04
2018-04-11T07:23:06.242Z,20.85
2018-04-11T07:24:06.352Z,20.83
2018-04-11T07:25:06.392Z,21.03
2018-04-11T07:26:06.198Z,20.8
2018-04-11T07:27:06.200Z,20.77
2018-04-11T07:28:06.159Z,21.01
2018-04-11T07:29:06.150Z,20.83
2018-04-11T07:30:06.175Z,20.81
2018-04-11T07:31:06.182Z,21.02
2018-04-11T07:32:06.157Z,20.84
2018-04-11T07:33:06.192Z,20.81
2018-04-11T07:34:06.191Z,21.02
2018-04-11T07:35:06.285Z,20.83
2018-04-11T07:36:06.293Z,20.81
2018-04-11T07:37:06.143Z,21.01
2018-04-11T07:38:06.311Z,20.84
2018-04-11T07:39:06.151Z,20.78
2018-04-11T07:40:06.731Z,21.04
2018-04-11T07:41:06.387Z,20.84
2018-04-11T07:42:06.186Z,20.81
2018-04-11T07:43:06.151Z,21.03
2018-04-11T07:44:06.258Z,20.83
2018-04-11T07:45:06.213Z,20.8
2018-04-11T07:46:06.821Z,21.01
2018-04-11T07:47:06.160Z,20.83
2018-04-11T07:48:06.174Z,20.81
2018-04-11T07:49:06.189Z,21.03
2018-04-11T07:50:06.194Z,20.82
2018-04-11T07:51:06.170Z,20.8
2018-04-11T07:52:06.174Z,21.01
2018-04-11T07:53:06.208Z,20.84
2018-04-11T07:54:06.697Z,20.79
2018-04-11T07:55:06.148Z,21.01
2018-04-11T07:56:06.164Z,20.83
2018-04-11T07:57:06.123Z,20.78
2018-04-11T07:58:06.164Z,21
2018-04-11T07:59:06.135Z,20.82
2018-04-11T08:00:06.131Z,20.77
2018-04-11T08:01:06.155Z,21
2018-04-11T08:02:06.166Z,20.81
2018-04-11T08:03:06.459Z,20.77
2018-04-11T08:04:06.318Z,20.89
2018-04-11T08:05:06.186Z,20.79
2018-04-11T08:06:06.151Z,20.76
2018-04-11T08:07:06.150Z,20.99
2018-04-11T08:08:06.291Z,20.8
2018-04-11T08:09:06.190Z,20.77
2018-04-11T08:10:06.611Z,20.99
2018-04-11T08:11:06.210Z,20.77
2018-04-11T08:12:06.160Z,20.75
2018-04-11T08:13:06.225Z,20.95
2018-04-11T08:14:06.159Z,20.77
2018-04-11T08:15:06.228Z,20.71
2018-04-11T08:16:06.123Z,20.93
2018-04-11T08:17:06.193Z,20.73
2018-04-11T08:18:06.221Z,20.7
2018-04-11T08:19:06.151Z,20.92
2018-04-11T08:20:06.119Z,20.71
2018-04-11T08:21:06.166Z,20.67
2018-04-11T08:22:06.178Z,20.87
2018-04-11T08:23:06.178Z,20.7
2018-04-11T08:24:06.171Z,20.65
2018-04-11T08:25:06.169Z,20.86
2018-04-11T08:26:06.282Z,20.68
2018-04-11T08:27:06.146Z,20.64
2018-04-11T08:28:06.184Z,20.84
2018-04-11T08:29:06.156Z,20.66
2018-04-11T08:30:06.166Z,20.63
2018-04-11T08:31:06.172Z,20.83
2018-04-11T08:32:06.155Z,20.63
2018-04-11T08:33:06.308Z,20.6
2018-04-11T08:34:06.208Z,20.8
2018-04-11T08:35:06.159Z,20.63
2018-04-11T08:36:06.123Z,20.59
2018-04-11T08:37:06.190Z,20.78
2018-04-11T08:38:06.196Z,20.6
2018-04-11T08:39:06.151Z,20.56
2018-04-11T08:40:06.180Z,20.77
2018-04-11T08:41:06.133Z,20.6
2018-04-11T08:42:06.172Z,20.59
2018-04-11T08:43:06.114Z,20.78
2018-04-11T08:44:06.171Z,20.59
2018-04-11T08:45:06.143Z,20.55
2018-04-11T08:46:06.126Z,20.76
2018-04-11T08:47:06.148Z,20.58
2018-04-11T08:48:06.197Z,20.53
2018-04-11T08:49:06.136Z,20.72
2018-04-11T08:50:06.138Z,20.53
2018-04-11T08:51:06.221Z,20.51
2018-04-11T08:52:06.184Z,20.71
2018-04-11T08:53:06.151Z,20.53
2018-04-11T08:54:06.174Z,20.48
2018-04-11T08:55:06.129Z,20.68
2018-04-11T08:56:06.140Z,20.5
2018-04-11T08:57:06.140Z,20.43
2018-04-11T08:58:06.136Z,20.62
2018-04-11T08:59:06.144Z,20.49
2018-04-11T09:00:06.164Z,20.46
2018-04-11T09:01:06.129Z,20.67
2018-04-11T09:02:06.126Z,20.51
2018-04-11T09:03:06.218Z,20.47
2018-04-11T09:04:06.146Z,20.65
2018-04-11T09:05:06.115Z,20.5
2018-04-11T09:06:06.184Z,20.47
2018-04-11T09:07:06.160Z,20.69
2018-04-11T09:08:06.248Z,20.53
2018-04-11T09:09:06.189Z,20.48
2018-04-11T09:10:06.126Z,20.7
2018-04-11T09:11:06.138Z,20.52
2018-04-11T09:12:06.213Z,20.49
2018-04-11T09:13:06.152Z,20.7
2018-04-11T09:14:06.107Z,20.53
2018-04-11T09:15:06.155Z,20.51
2018-04-11T09:16:06.119Z,20.71
2018-04-11T09:17:06.126Z,20.53
2018-04-11T09:18:06.124Z,20.51
2018-04-11T09:19:06.191Z,20.72
2018-04-11T09:20:06.163Z,20.53
2018-04-11T09:21:06.143Z,20.49
2018-04-11T09:22:06.167Z,20.71
2018-04-11T09:23:06.170Z,20.52
2018-04-11T09:24:06.223Z,20.48
2018-04-11T09:25:06.282Z,20.7
2018-04-11T09:26:06.666Z,20.53
2018-04-11T09:27:06.625Z,20.47
2018-04-11T09:28:06.127Z,20.7
2018-04-11T09:29:06.119Z,20.52
2018-04-11T09:30:06.104Z,20.47
2018-04-11T09:31:06.106Z,20.7
2018-04-11T09:32:06.099Z,20.52
2018-04-11T09:33:06.474Z,20.51
2018-04-11T09:34:06.174Z,20.71
2018-04-11T09:35:06.079Z,20.52
2018-04-11T09:36:06.110Z,20.48
2018-04-11T09:37:06.119Z,20.7
2018-04-11T09:38:06.148Z,20.53
2018-04-11T09:39:06.147Z,20.5
2018-04-11T09:40:06.248Z,20.71
2018-04-11T09:41:06.167Z,20.53
2018-04-11T09:42:06.107Z,20.5
2018-04-11T09:43:06.156Z,20.69
2018-04-11T09:44:06.128Z,20.52
2018-04-11T09:45:06.160Z,20.47
2018-04-11T09:46:06.205Z,20.68
2018-04-11T09:47:06.119Z,20.51
2018-04-11T09:48:06.140Z,20.47
2018-04-11T09:49:06.197Z,20.7
2018-04-11T09:50:06.157Z,20.5
2018-04-11T09:51:06.203Z,20.51
2018-04-11T09:52:06.131Z,20.68
2018-04-11T09:53:06.157Z,20.51
2018-04-11T09:54:06.120Z,20.47
2018-04-11T09:55:06.115Z,20.67
2018-04-11T09:56:06.122Z,20.47
2018-04-11T09:57:06.122Z,20.46
2018-04-11T09:58:06.303Z,20.67
2018-04-11T09:59:06.111Z,20.48
2018-04-11T10:00:06.125Z,20.46
2018-04-11T10:01:06.112Z,20.66
2018-04-11T10:02:06.138Z,20.47
2018-04-11T10:03:06.169Z,20.43
2018-04-11T10:04:06.100Z,20.6
2018-04-11T10:05:06.176Z,20.43
2018-04-11T10:06:06.138Z,20.4
2018-04-11T10:07:06.123Z,20.6
2018-04-11T10:08:06.134Z,20.41
2018-04-11T10:09:06.116Z,20.37
2018-04-11T10:10:06.119Z,20.59
2018-04-11T10:11:06.105Z,20.41
2018-04-11T10:12:06.123Z,20.37
2018-04-11T10:13:06.261Z,20.57
2018-04-11T10:14:06.182Z,20.37
2018-04-11T10:15:06.116Z,20.36
2018-04-11T10:16:06.146Z,20.55
2018-04-11T10:17:06.137Z,20.37
2018-04-11T10:18:06.305Z,20.32
2018-04-11T10:19:06.518Z,20.54
2018-04-11T10:20:06.112Z,20.35
2018-04-11T10:21:06.252Z,20.3
2018-04-11T10:22:06.171Z,20.52
2018-04-11T10:23:06.137Z,20.36
2018-04-11T10:24:06.130Z,20.35
2018-04-11T10:25:06.166Z,20.54
2018-04-11T10:26:06.120Z,20.34
2018-04-11T10:27:06.141Z,20.3
2018-04-11T10:28:06.388Z,20.52
2018-04-11T10:29:06.143Z,20.3
2018-04-11T10:30:06.173Z,20.29
2018-04-11T10:31:06.155Z,20.49
2018-04-11T10:32:06.279Z,20.29
2018-04-11T10:33:06.234Z,20.24
2018-04-11T10:34:06.328Z,20.46
2018-04-11T10:35:06.114Z,20.27
2018-04-11T10:36:06.200Z,20.26
2018-04-11T10:37:06.155Z,20.47
2018-04-11T10:38:06.231Z,20.27
2018-04-11T10:39:06.162Z,20.23
2018-04-11T10:40:06.336Z,20.43
2018-04-11T10:41:06.137Z,20.26
2018-04-11T10:42:06.100Z,20.23
2018-04-11T10:43:06.251Z,20.42
2018-04-11T10:44:06.102Z,20.26
2018-04-11T10:45:06.165Z,20.24
2018-04-11T10:46:06.116Z,20.44
2018-04-11T10:47:06.122Z,20.24
2018-04-11T10:48:06.153Z,20.21
2018-04-11T10:49:06.115Z,20.41
2018-04-11T10:50:06.126Z,20.23
2018-04-11T10:51:06.156Z,20.18
2018-04-11T10:52:06.123Z,20.4
2018-04-11T10:53:06.113Z,20.19
2018-04-11T10:54:06.108Z,20.15
2018-04-11T10:55:06.138Z,20.37
2018-04-11T10:56:06.110Z,20.19
2018-04-11T10:57:06.102Z,20.18
2018-04-11T10:58:06.108Z,20.39
2018-04-11T10:59:06.108Z,20.18
2018-04-11T11:00:06.113Z,20.16
2018-04-11T11:01:06.178Z,20.36
2018-04-11T11:02:06.126Z,20.18
2018-04-11T11:03:06.086Z,20.13
2018-04-11T11:04:06.102Z,20.34
2018-04-11T11:05:06.102Z,20.16
2018-04-11T11:06:06.119Z,20.14
2018-04-11T11:07:06.120Z,20.35
2018-04-11T11:08:06.209Z,20.15
2018-04-11T11:09:06.083Z,20.13
2018-04-11T11:10:06.114Z,20.33
2018-04-11T11:11:06.150Z,20.15
2018-04-11T11:12:06.269Z,20.13
2018-04-11T11:13:06.122Z,20.33
2018-04-11T11:14:06.152Z,20.16
2018-04-11T11:15:06.102Z,20.13
2018-04-11T11:16:06.091Z,20.32
2018-04-11T11:17:06.078Z,20.13
2018-04-11T11:18:06.103Z,20.09
2018-04-11T11:19:06.125Z,20.3
2018-04-11T11:20:06.180Z,20.14
2018-04-11T11:21:06.231Z,20.1
2018-04-11T11:22:06.113Z,20.3
2018-04-11T11:23:06.150Z,20.12
2018-04-11T11:24:06.118Z,20.08
2018-04-11T11:25:06.106Z,20.3
2018-04-11T11:26:06.259Z,20.12
2018-04-11T11:27:06.181Z,20.09
2018-04-11T11:28:06.149Z,20.29
2018-04-11T11:29:06.131Z,20.11
2018-04-11T11:30:06.063Z,20.08
2018-04-11T11:31:06.076Z,20.26
2018-04-11T11:32:06.325Z,20.09
2018-04-11T11:33:06.121Z,20.06
2018-04-11T11:34:06.092Z,20.27
2018-04-11T11:35:06.115Z,20.09
2018-04-11T11:36:06.128Z,20.06
2018-04-11T11:37:06.085Z,20.26
2018-04-11T11:38:06.094Z,20.08
2018-04-11T11:39:06.065Z,20.03
2018-04-11T11:40:06.095Z,20.24
2018-04-11T11:41:06.260Z,20.08
2018-04-11T11:42:06.102Z,20.04
2018-04-11T11:43:06.100Z,20.24
2018-04-11T11:44:06.142Z,20.06
2018-04-11T11:45:06.089Z,20.05
2018-04-11T11:46:06.126Z,20.24
2018-04-11T11:47:06.208Z,20.07
2018-04-11T11:48:06.082Z,20.05
2018-04-11T11:49:06.254Z,20.24
2018-04-11T11:50:06.102Z,20.06
2018-04-11T11:51:06.082Z,20
2018-04-11T11:52:06.485Z,20.22
2018-04-11T11:53:06.075Z,20.06
2018-04-11T11:54:06.186Z,20.04
2018-04-11T11:55:06.139Z,20.22
2018-04-11T11:56:06.086Z,19.99
2018-04-11T11:57:06.069Z,20
2018-04-11T11:58:06.088Z,20.25
2018-04-11T11:59:06.284Z,20.06
2018-04-11T12:00:06.099Z,20.03
2018-04-11T12:01:06.116Z,20.24
2018-04-11T12:02:06.066Z,20.05
2018-04-11T12:03:06.056Z,20.05
2018-04-11T12:04:06.082Z,20.26
2018-04-11T12:05:06.066Z,20.06
2018-04-11T12:06:06.102Z,20.04
2018-04-11T12:07:06.095Z,20.24
2018-04-11T12:08:06.100Z,20.08
2018-04-11T12:09:06.243Z,20.02
2018-04-11T12:10:06.080Z,20.24
2018-04-11T12:11:06.064Z,20.05
2018-04-11T12:12:06.054Z,20
2018-04-11T12:13:06.316Z,20.23
2018-04-11T12:14:06.073Z,20.03
2018-04-11T12:15:06.049Z,20
2018-04-11T12:16:06.125Z,20.22
2018-04-11T12:17:06.070Z,20.05
2018-04-11T12:18:06.074Z,20.01
2018-04-11T12:19:06.215Z,20.23
2018-04-11T12:20:06.223Z,20.06
2018-04-11T12:21:06.111Z,20.04
2018-04-11T12:22:06.123Z,20.23
2018-04-11T12:23:06.101Z,20.08
2018-04-11T12:24:06.439Z,20.07
2018-04-11T12:25:06.535Z,20.29
2018-04-11T12:26:06.060Z,20.11
2018-04-11T12:27:06.044Z,20.08
2018-04-11T12:28:06.205Z,20.24
2018-04-11T12:29:06.103Z,20.12
2018-04-11T12:30:06.095Z,20.11
2018-04-11T12:31:06.084Z,20.3
2018-04-11T12:32:06.428Z,20.13
2018-04-11T12:33:06.204Z,20.12
2018-04-11T12:34:06.238Z,20.27
2018-04-11T12:35:06.073Z,20.17
2018-04-11T12:36:06.128Z,20.12
2018-04-11T12:37:06.395Z,20.33
2018-04-11T12:38:06.136Z,20.19
2018-04-11T12:39:06.078Z,20.13
2018-04-11T12:40:06.057Z,20.35
2018-04-11T12:41:06.064Z,20.15
2018-04-11T12:42:06.261Z,20.09
2018-04-11T12:43:06.093Z,20.29
2018-04-11T12:44:06.117Z,20.12
2018-04-11T12:45:06.250Z,20.1
2018-04-11T12:46:06.069Z,20.31
2018-04-11T12:47:06.082Z,20.11
2018-04-11T12:48:06.429Z,20.06
2018-04-11T12:49:06.105Z,20.27
2018-04-11T12:50:06.104Z,20.1
2018-04-11T12:51:06.132Z,20.08
2018-04-11T12:52:06.091Z,20.26
2018-04-11T12:53:06.073Z,20.11
2018-04-11T12:54:06.097Z,20.11
2018-04-11T12:55:06.072Z,20.31